Time;durP1;ratioP1;P1;durP2;ratioP2;P2;SDS_P1;SDS_P2;PMS_P1;PMS_P2;Temp;Humidity;BMP_temperature;BMP_pressure;BME280_temperature;BME280_humidity;BME280_pressure;Samples;Min_cycle;Max_cycle;Signal;HPM_P1;HPM_P2
2022/06/20 00:00:49;;;;;;;10.00;7.60;;;;;;;23.02;100.00;95569.31;5034915;28;102529;-64
2022/06/20 00:03:22;;;;;;;11.50;8.07;;;;;;;23.07;100.00;95568.25;5032009;27;102150;-63
2022/06/20 00:05:49;;;;;;;11.23;7.83;;;;;;;22.98;100.00;95570.31;5032665;27;102331;-64
2022/06/20 00:08:16;;;;;;;12.13;9.00;;;;;;;22.99;100.00;95566.50;5031774;27;102678;-64
2022/06/20 00:10:46;;;;;;;12.27;8.10;;;;;;;22.82;100.00;95564.09;5031994;28;101857;-63
2022/06/20 00:13:20;;;;;;;15.10;8.87;;;;;;;22.90;100.00;95572.09;5030626;28;104996;-64
2022/06/20 00:15:50;;;;;;;10.27;7.90;;;;;;;22.64;100.00;95570.97;5030275;28;104347;-64
2022/06/20 00:18:18;;;;;;;13.87;8.63;;;;;;;22.64;100.00;95565.56;5030773;28;101793;-64
2022/06/20 00:20:45;;;;;;;9.77;7.60;;;;;;;22.68;100.00;95575.34;5032088;28;102847;-64
2022/06/20 00:23:12;;;;;;;8.80;7.70;;;;;;;22.66;100.00;95571.44;5034506;28;103318;-64
2022/06/20 00:25:40;;;;;;;10.73;8.10;;;;;;;22.68;100.00;95566.44;5032005;27;102527;-64
2022/06/20 00:28:08;;;;;;;9.40;7.73;;;;;;;22.69;100.00;95562.59;5031198;28;102660;-64
2022/06/20 00:30:36;;;;;;;10.43;8.40;;;;;;;22.68;100.00;95552.88;5031816;28;101845;-64
2022/06/20 00:33:06;;;;;;;11.63;8.30;;;;;;;22.61;100.00;95550.75;5031858;27;102294;-63
2022/06/20 00:35:35;;;;;;;11.40;8.40;;;;;;;22.43;100.00;95554.09;5030929;27;102613;-63
2022/06/20 00:38:05;;;;;;;8.77;7.87;;;;;;;22.40;100.00;95550.16;5030228;28;102091;-63
2022/06/20 00:40:39;;;;;;;16.37;8.40;;;;;;;22.56;100.00;95548.31;5031921;28;102468;-63
2022/06/20 00:43:10;;;;;;;14.10;8.80;;;;;;;22.44;100.00;95556.50;5031384;27;102648;-63
2022/06/20 00:45:39;;;;;;;11.90;8.37;;;;;;;;;;5035135;27;101905;-63
2022/06/20 00:48:13;;;;;;;12.83;8.10;;;;;;;22.31;100.00;95554.13;5029950;28;104963;-64
2022/06/20 00:50:40;;;;;;;15.20;8.53;;;;;;;22.23;100.00;95560.50;5031406;28;102222;-63
2022/06/20 00:53:16;;;;;;;12.53;8.93;;;;;;;22.32;100.00;95553.00;5031410;28;102561;-63
2022/06/20 00:55:50;;;;;;;9.53;7.90;;;;;;;22.33;100.00;95560.00;5030791;28;102642;-63
2022/06/20 00:58:27;;;;;;;10.80;8.37;;;;;;;22.17;100.00;95564.59;5030352;28;101899;-64
2022/06/20 01:00:56;;;;;;;15.00;8.70;;;;;;;22.21;100.00;95560.03;5031468;27;102284;-63
2022/06/20 01:03:29;;;;;;;9.17;7.90;;;;;;;22.17;100.00;95556.47;5029344;27;102678;-63
2022/06/20 01:06:04;;;;;;;11.27;8.43;;;;;;;22.18;100.00;95558.03;5031551;28;101908;-63
2022/06/20 01:08:38;;;;;;;10.13;7.53;;;;;;;22.18;100.00;95555.31;5032920;28;103996;-63
2022/06/20 01:11:08;;;;;;;11.67;8.67;;;;;;;22.19;100.00;95554.19;5030984;28;102127;-63
2022/06/20 01:13:35;;;;;;;14.63;8.33;;;;;;;21.99;100.00;95557.84;5031129;28;102392;-64
2022/06/20 01:16:17;;;;;;;13.87;9.10;;;;;;;22.07;100.00;95552.28;5029235;28;105471;-63
2022/06/20 01:18:49;;;;;;;10.63;8.17;;;;;;;21.98;100.00;95553.56;5029688;28;101946;-63
2022/06/20 01:21:19;;;;;;;13.13;8.63;;;;;;;21.87;100.00;95547.84;5031108;28;102393;-64
2022/06/20 01:23:57;;;;;;;10.53;8.37;;;;;;;21.91;100.00;95532.47;5030147;28;102780;-63
2022/06/20 01:26:35;;;;;;;11.77;8.57;;;;;;;21.81;100.00;95535.69;5031130;27;101770;-63
2022/06/20 01:29:06;;;;;;;13.70;9.03;;;;;;;21.79;100.00;95542.56;5033839;28;102501;-64
2022/06/20 01:31:39;;;;;;;12.27;8.40;;;;;;;21.67;100.00;95539.81;5031001;28;101731;-63
2022/06/20 01:34:07;;;;;;;11.23;8.97;;;;;;;21.57;100.00;95543.03;5029147;28;104380;-63
2022/06/20 01:39:23;;;;;;;11.60;8.50;;;;;;;21.68;100.00;95549.56;5029602;28;101997;-63
2022/06/20 01:44:40;;;;;;;13.57;8.53;;;;;;;21.58;100.00;95537.25;5028826;28;105848;-63
2022/06/20 01:47:07;;;;;;;11.03;8.17;;;;;;;21.54;100.00;95551.81;5029122;28;102056;-63
2022/06/20 01:49:37;;;;;;;12.07;8.97;;;;;;;21.57;100.00;95554.59;5030556;28;102358;-63
2022/06/20 01:52:09;;;;;;;9.43;8.43;;;;;;;21.48;100.00;95553.16;5033632;28;102530;-63
2022/06/20 01:54:41;;;;;;;10.73;8.60;;;;;;;21.54;100.00;95549.91;5030758;27;102364;-64
2022/06/20 01:57:12;;;;;;;12.47;8.80;;;;;;;21.33;100.00;95551.13;5028557;28;105732;-64
2022/06/20 01:59:45;;;;;;;11.53;9.20;;;;;;;21.36;100.00;95551.22;5029186;28;101803;-64
2022/06/20 02:02:13;;;;;;;12.83;8.50;;;;;;;21.20;100.00;95555.72;5030228;28;102448;-63
2022/06/20 02:04:41;;;;;;;12.00;8.10;;;;;;;21.04;100.00;95552.09;5029681;28;102550;-63
2022/06/20 02:07:11;;;;;;;12.23;8.87;;;;;;;21.16;100.00;95548.63;5029102;28;101812;-63
2022/06/20 02:09:40;;;;;;;13.27;8.90;;;;;;;21.08;100.00;95550.31;5028990;28;104605;-63
2022/06/20 02:12:10;;;;;;;12.80;8.87;;;;;;;21.11;100.00;95552.38;5029803;28;102004;-63
2022/06/20 02:14:42;;;;;;;14.83;8.60;;;;;;;21.12;100.00;95547.72;5031848;28;101993;-63
2022/06/20 02:17:15;;;;;;;11.33;9.00;;;;;;;21.01;100.00;95541.19;5029851;27;101731;-64
2022/06/20 02:19:47;;;;;;;15.70;8.93;;;;;;;20.98;100.00;95541.88;5028593;28;102003;-63
2022/06/20 02:22:16;;;;;;;9.60;8.60;;;;;;;21.09;100.00;95548.41;5030109;27;104156;-63
2022/06/20 02:24:48;;;;;;;12.07;8.33;;;;;;;21.06;100.00;95541.75;5029915;27;102007;-63
2022/06/20 02:27:21;;;;;;;12.10;8.50;;;;;;;21.03;100.00;95547.06;5030193;27;102256;-63
2022/06/20 02:29:49;;;;;;;13.43;8.97;;;;;;;21.03;100.00;95552.47;5028882;28;105191;-64
2022/06/20 02:32:20;;;;;;;12.67;9.03;;;;;;;21.05;100.00;95551.00;5029398;28;102554;-63
2022/06/20 02:34:48;;;;;;;10.83;8.70;;;;;;;21.04;100.00;95546.69;5030312;28;101670;-63
2022/06/20 02:37:20;;;;;;;10.40;8.23;;;;;;;20.95;100.00;95547.94;5031571;28;103843;-63
2022/06/20 02:39:50;;;;;;;11.57;8.73;;;;;;;20.92;100.00;95545.91;5030432;28;101687;-63
2022/06/20 02:42:23;;;;;;;14.60;9.17;;;;;;;21.01;100.00;95543.88;5029736;28;102350;-63
2022/06/20 02:44:53;;;;;;;12.20;8.60;;;;;;;20.97;100.00;95546.47;5027844;28;105659;-63
2022/06/20 02:47:23;;;;;;;13.27;8.63;;;;;;;20.94;100.00;95541.75;5029734;27;101873;-63
2022/06/20 02:49:53;;;;;;;12.90;9.10;;;;;;;20.91;100.00;95547.03;5028120;28;105527;-63
2022/06/20 02:52:25;;;;;;;9.73;8.40;;;;;;;20.83;100.00;95559.50;5029329;28;102799;-63
2022/06/20 02:54:55;;;;;;;14.60;9.10;;;;;;;20.79;100.00;95561.28;5029910;28;101717;-63
2022/06/20 02:57:31;;;;;;;12.60;8.53;;;;;;;20.75;100.00;95560.38;5029880;27;102844;-63
2022/06/20 03:00:08;;;;;;;14.20;9.07;;;;;;;20.76;100.00;95561.16;5032719;28;103098;-64
2022/06/20 03:02:39;;;;;;;12.27;9.23;;;;;;;20.85;100.00;95559.13;5029427;28;102662;-64
2022/06/20 03:05:07;;;;;;;9.50;8.50;;;;;;;20.92;100.00;95565.63;5029098;28;102655;-63
2022/06/20 03:07:39;;;;;;;12.03;8.33;;;;;;;20.99;100.00;95552.31;5029790;28;101860;-63
2022/06/20 03:10:20;;;;;;;9.43;8.43;;;;;;;21.02;100.00;95551.66;5029718;27;102970;-63
2022/06/20 03:12:48;;;;;;;12.60;9.30;;;;;;;20.99;100.00;95549.63;5028733;28;102646;-63
2022/06/20 03:15:18;;;;;;;10.10;8.40;;;;;;;21.00;100.00;95551.22;5027893;28;102077;-63
2022/06/20 03:17:47;;;;;;;15.93;9.20;;;;;;;21.01;100.00;95554.69;5029638;28;102579;-63
2022/06/20 03:20:17;;;;;;;16.27;9.20;;;;;;;20.90;100.00;95561.66;5028299;28;102701;-63
2022/06/20 03:22:50;;;;;;;11.70;9.50;;;;;;;20.94;100.00;95565.28;5031464;28;101998;-63
2022/06/20 03:25:19;;;;;;;12.53;8.77;;;;;;;20.98;100.00;95561.56;5028884;27;102658;-63
2022/06/20 03:27:48;;;;;;;12.03;9.37;;;;;;;20.99;100.00;95565.06;5030504;28;101914;-63
2022/06/20 03:30:26;;;;;;;12.20;9.27;;;;;;;21.07;100.00;95561.47;5032934;28;102849;-63
2022/06/20 03:32:53;;;;;;;13.57;9.23;;;;;;;21.02;100.00;95570.59;5032396;27;101754;-63
2022/06/20 03:35:21;;;;;;;13.23;8.83;;;;;;;20.95;100.00;95574.97;5032424;28;101799;-64
2022/06/20 03:37:49;;;;;;;14.33;9.50;;;;;;;21.19;100.00;95575.03;5031402;28;104697;-63
2022/06/20 03:40:17;;;;;;;15.40;9.50;;;;;;;21.21;100.00;95573.53;5032187;28;102735;-63
2022/06/20 03:42:45;;;;;;;9.27;8.27;;;;;;;21.28;100.00;95584.59;5036042;28;102073;-63
2022/06/20 03:45:15;;;;;;;12.37;8.87;;;;;;;21.33;100.00;95573.56;5031754;28;102653;-63
2022/06/20 03:47:51;;;;;;;14.67;8.90;;;;;;;21.38;100.00;95578.75;5030348;28;101943;-63
2022/06/20 03:50:24;;;;;;;10.90;8.03;;;;;;;21.52;100.00;95567.59;5032134;28;102398;-63
2022/06/20 03:52:57;;;;;;;13.03;7.80;;;;;;;21.81;100.00;95570.06;5031910;28;101878;-63
2022/06/20 03:55:36;;;;;;;16.17;7.70;;;;;;;22.10;100.00;95577.91;5030096;28;102082;-63
2022/06/20 03:58:09;;;;;;;10.43;7.07;;;;;;;22.28;100.00;95595.47;5031301;28;105662;-64
2022/06/20 04:00:45;;;;;;;10.60;7.47;;;;;;;22.38;100.00;95600.38;5032233;28;103043;-63
2022/06/20 04:03:21;;;;;;;9.70;6.90;;;;;;;22.50;100.00;95595.75;5032413;27;101712;-63
2022/06/20 04:05:53;;;;;;;13.80;7.17;;;;;;;22.53;100.00;95597.00;5035662;28;102890;-64
2022/06/20 04:10:57;;;;;;;12.13;7.20;;;;;;;22.58;100.00;95594.03;5031060;28;101956;-63
2022/06/20 04:11:16;;;;;;;10.00;7.27;;;;;;;22.58;100.00;95585.91;5032014;28;101863;-63
2022/06/20 04:13:55;;;;;;;10.00;6.60;;;;;;;22.63;100.00;95599.22;5031464;28;103111;-63
2022/06/20 04:16:28;;;;;;;10.70;6.80;;;;;;;22.65;100.00;95599.66;5031986;28;101779;-63
2022/06/20 04:19:07;;;;;;;13.27;7.50;;;;;;;22.77;100.00;95607.75;5030652;28;103763;-63
2022/06/20 04:21:41;;;;;;;11.30;6.23;;;;;;;22.75;100.00;95615.41;5029717;28;103969;-63
2022/06/20 04:24:17;;;;;;;9.03;6.40;;;;;;;22.82;100.00;95613.69;5032099;27;101912;-63
2022/06/20 04:26:51;;;;;;;9.50;6.67;;;;;;;22.89;100.00;95605.75;5032023;27;102489;-63
2022/06/20 04:29:23;;;;;;;12.27;7.80;;;;;;;23.06;100.00;95615.50;5034595;27;102415;-63
2022/06/20 04:31:55;;;;;;;11.33;6.87;;;;;;;23.16;100.00;95604.16;5030730;28;103620;-63
2022/06/20 04:34:29;;;;;;;12.00;7.20;;;;;;;23.31;100.00;95603.38;5031133;28;101980;-63
2022/06/20 04:36:59;;;;;;;10.03;7.43;;;;;;;23.46;100.00;95608.81;5030360;27;101802;-63
2022/06/20 04:39:37;;;;;;;14.80;6.53;;;;;;;23.52;100.00;95610.13;5031265;28;104395;-63
2022/06/20 04:42:12;;;;;;;13.67;6.40;;;;;;;23.57;100.00;95606.34;5031429;27;101718;-63
2022/06/20 04:44:50;;;;;;;12.63;6.97;;;;;;;23.66;100.00;95610.47;5031552;28;101885;-63
2022/06/20 04:47:40;;;;;;;11.50;6.67;;;;;;;23.53;100.00;95606.28;5032050;27;102674;-63
2022/06/20 04:50:16;;;;;;;11.80;6.40;;;;;;;23.44;100.00;95615.75;5030930;28;103097;-63
2022/06/20 04:52:44;;;;;;;12.00;6.50;;;;;;;23.35;100.00;95644.97;5033661;28;102057;-61
2022/06/20 04:55:16;;;;;;;12.30;6.93;;;;;;;23.30;100.00;95647.94;5012455;28;105390;-65
2022/06/20 04:57:44;;;;;;;16.87;7.20;;;;;;;23.11;100.00;95642.38;5031623;28;101918;-65
2022/06/20 05:00:19;;;;;;;13.27;7.80;;;;;;;23.01;100.00;95637.44;5031303;28;102559;-65
2022/06/20 05:02:47;;;;;;;17.07;8.17;;;;;;;22.52;100.00;95672.09;5030448;27;102982;-65
2022/06/20 05:05:21;;;;;;;12.97;8.90;;;;;;;22.04;100.00;95672.13;5030962;28;101917;-65
2022/06/20 05:07:50;;;;;;;16.90;8.47;;;;;;;22.00;100.00;95663.09;5030011;28;105656;-64
2022/06/20 05:10:21;;;;;;;14.13;8.30;;;;;;;22.00;100.00;95662.31;5030543;28;102678;-64
2022/06/20 05:12:54;;;;;;;12.70;7.73;;;;;;;21.96;100.00;95666.84;5030977;27;102256;-64
2022/06/20 05:15:29;;;;;;;14.37;8.70;;;;;;;21.66;100.00;95685.19;5033927;28;102525;-64
2022/06/20 05:17:58;;;;;;;16.17;8.50;;;;;;;21.56;100.00;95690.22;5031293;27;101700;-64
2022/06/20 05:20:31;;;;;;;15.70;8.97;;;;;;;21.54;100.00;95703.31;5029673;28;105329;-64
2022/06/20 05:23:02;;;;;;;17.77;9.47;;;;;;;21.59;100.00;95705.81;5030260;28;102730;-64
2022/06/20 05:25:32;;;;;;;13.77;8.63;;;;;;;21.58;100.00;95715.06;5029548;28;101831;-64
2022/06/20 05:28:03;;;;;;;12.53;9.40;;;;;;;21.64;100.00;95725.31;5029608;28;104041;-64
2022/06/20 05:30:35;;;;;;;16.30;8.87;;;;;;;21.57;100.00;95754.84;5030359;28;103051;-64
2022/06/20 05:33:07;;;;;;;21.07;10.63;;;;;;;21.22;100.00;95809.59;5029675;28;101718;-64
2022/06/20 05:35:44;;;;;;;14.37;7.37;;;;;;;21.94;100.00;95745.69;5029888;28;102916;-65
2022/06/20 05:38:19;;;;;;;10.97;7.73;;;;;;;21.69;100.00;95760.31;5033213;27;101662;-65
2022/06/20 05:40:49;;;;;;;14.23;8.80;;;;;;;21.41;100.00;95796.41;5030766;28;102447;-65
2022/06/20 05:43:20;;;;;;;11.27;8.37;;;;;;;21.11;100.00;95790.28;5030161;28;103223;-65
2022/06/20 05:45:51;;;;;;;12.00;9.13;;;;;;;21.02;100.00;95791.47;5028949;28;101864;-65
2022/06/20 05:48:20;;;;;;;15.80;9.23;;;;;;;20.77;100.00;95804.00;5030939;28;102530;-65
2022/06/20 05:50:54;;;;;;;15.57;9.77;;;;;;;20.77;100.00;95776.22;5028938;27;102663;-65
2022/06/20 05:53:28;;;;;;;14.23;9.87;;;;;;;20.75;100.00;95781.94;5030817;28;101725;-65
2022/06/20 05:55:57;;;;;;;15.67;10.03;;;;;;;20.38;100.00;95809.81;5029218;28;105041;-65
2022/06/20 05:58:29;;;;;;;18.37;11.00;;;;;;;20.53;100.00;95806.56;5032598;28;102841;-65
2022/06/20 06:01:02;;;;;;;15.37;10.47;;;;;;;20.42;100.00;95778.34;5029440;28;102309;-65
2022/06/20 06:03:35;;;;;;;17.73;10.70;;;;;;;20.25;100.00;95751.44;5027682;28;103955;-65
2022/06/20 06:06:10;;;;;;;14.30;9.17;;;;;;;20.37;100.00;95759.63;5028210;28;101804;-65
2022/06/20 06:08:45;;;;;;;14.17;8.57;;;;;;;20.50;100.00;95763.22;5030511;27;102243;-65
2022/06/20 06:11:17;;;;;;;14.57;7.83;;;;;;;20.69;100.00;95761.66;5011750;28;105535;-65
2022/06/20 06:13:49;;;;;;;14.83;8.33;;;;;;;20.84;100.00;95790.00;5030265;27;101784;-65
2022/06/20 06:19:17;;;;;;;15.50;8.70;;;;;;;20.85;100.00;95832.09;5029653;27;102561;-64
2022/06/20 06:21:47;;;;;;;11.30;8.33;;;;;;;20.63;100.00;95881.03;5033673;28;101796;-64
2022/06/20 06:24:18;;;;;;;17.03;9.47;;;;;;;20.73;100.00;95870.66;5029709;27;103043;-64
2022/06/20 06:26:48;;;;;;;14.63;9.57;;;;;;;20.68;100.00;95868.16;5030125;28;101698;-65
2022/06/20 06:29:20;;;;;;;15.07;8.47;;;;;;;20.76;100.00;95880.81;5030279;28;102468;-64
2022/06/20 06:31:50;;;;;;;14.43;9.23;;;;;;;20.75;100.00;95898.16;5029204;28;104297;-64
2022/06/20 06:34:23;;;;;;;16.33;9.53;;;;;;;20.86;100.00;95890.44;5028496;28;101948;-64
2022/06/20 06:36:58;;;;;;;9.97;8.43;;;;;;;20.93;100.00;95902.38;5030132;28;102306;-64
2022/06/20 06:39:31;;;;;;;11.67;8.77;;;;;;;20.83;100.00;95897.31;5029391;28;102627;-64
2022/06/20 06:42:02;;;;;;;12.23;9.10;;;;;;;20.95;100.00;95899.34;5030302;28;101737;-64
2022/06/20 06:44:35;;;;;;;13.37;9.80;;;;;;;20.74;100.00;95909.28;5032883;27;102556;-64
2022/06/20 06:47:02;;;;;;;13.67;10.10;;;;;;;20.89;100.00;95908.75;5030256;28;101938;-64
2022/06/20 06:49:35;;;;;;;13.03;9.50;;;;;;;20.85;100.00;95913.19;5029113;28;102447;-64
2022/06/20 06:52:11;;;;;;;14.83;9.50;;;;;;;20.89;100.00;95917.66;5029194;28;101944;-64
2022/06/20 06:54:53;;;;;;;14.03;11.10;;;;;;;21.04;100.00;95925.19;5030066;27;101698;-64
2022/06/20 06:57:25;;;;;;;14.70;11.63;;;;;;;20.93;100.00;95936.72;5028902;28;102884;-64
2022/06/20 07:00:15;;;;;;;18.30;11.03;;;;;;;20.84;100.00;95938.66;5026966;28;104127;-64
2022/06/20 07:02:45;;;;;;;18.60;10.83;;;;;;;20.91;100.00;95947.06;5030495;27;102165;-65
2022/06/20 07:05:20;;;;;;;15.97;9.90;;;;;;;21.00;100.00;95939.69;5031984;28;102304;-64
2022/06/20 07:07:54;;;;;;;15.43;10.50;;;;;;;21.09;100.00;95932.34;5036198;27;102536;-64
2022/06/20 07:10:26;;;;;;;18.53;11.20;;;;;;;21.20;100.00;95941.66;5031127;28;105233;-64
2022/06/20 07:12:58;;;;;;;12.87;10.50;;;;;;;21.48;100.00;95948.94;5031589;28;103325;-64
2022/06/20 07:15:26;;;;;;;12.13;10.83;;;;;;;21.60;100.00;95935.50;5032026;28;101736;-64
2022/06/20 07:17:56;;;;;;;13.97;10.77;;;;;;;21.73;100.00;95939.06;5030684;28;105359;-64
2022/06/20 07:20:27;;;;;;;13.30;10.17;;;;;;;21.90;100.00;95930.81;5031439;27;102528;-64
2022/06/20 07:23:01;;;;;;;14.67;11.57;;;;;;;22.08;100.00;95937.63;5030556;28;101736;-64
2022/06/20 07:25:35;;;;;;;11.50;10.20;;;;;;;22.12;100.00;95933.13;5030801;28;105287;-65
2022/06/20 07:28:07;;;;;;;16.93;11.70;;;;;;;22.17;100.00;95943.75;5029912;28;104521;-64
2022/06/20 07:30:41;;;;;;;15.30;9.80;;;;;;;22.01;100.00;95949.00;5034026;28;101924;-64
2022/06/20 07:33:12;;;;;;;14.43;9.87;;;;;;;22.43;100.00;95950.47;5030953;28;105729;-65
2022/06/20 07:35:47;;;;;;;12.53;10.27;;;;;;;22.67;100.00;95937.00;5032766;28;101691;-64
2022/06/20 07:38:21;;;;;;;13.87;10.00;;;;;;;22.70;100.00;95930.91;5031642;28;102458;-64
2022/06/20 07:40:52;;;;;;;13.37;9.90;;;;;;;22.31;100.00;95936.13;5029755;28;105468;-65
2022/06/20 07:43:26;;;;;;;13.50;9.27;;;;;;;22.63;100.00;95936.09;5032667;27;101706;-65
2022/06/20 07:45:56;;;;;;;11.17;8.93;;;;;;;23.11;100.00;95938.03;5032626;28;102392;-65
2022/06/20 07:48:29;;;;;;;17.63;9.53;;;;;;;23.03;100.00;95936.22;5030437;28;105391;-65
2022/06/20 07:51:01;;;;;;;13.13;8.83;;;;;;;22.88;100.00;95943.13;5035666;28;101778;-65
2022/06/20 07:53:37;;;;;;;14.17;9.33;;;;;;;23.36;100.00;95945.81;5030456;28;103609;-65
2022/06/20 07:56:08;;;;;;;12.53;9.60;;;;;;;23.55;100.00;95937.88;5031212;28;101842;-65
2022/06/20 07:58:39;;;;;;;14.30;9.63;;;;;;;23.29;100.00;95944.81;5031096;28;104229;-65
2022/06/20 08:01:15;;;;;;;16.03;9.03;;;;;;;23.07;100.00;95935.22;5030244;28;105038;-65
2022/06/20 08:03:49;;;;;;;13.17;8.70;;;;;;;23.25;100.00;95941.19;5031145;28;101859;-65
2022/06/20 08:06:22;;;;;;;13.53;8.87;;;;;;;23.92;100.00;95944.03;5032518;28;101863;-65
2022/06/20 08:08:56;;;;;;;12.20;8.23;;;;;;;24.15;100.00;95936.91;5030158;28;104043;-65
2022/06/20 08:11:42;;;;;;;15.97;8.47;;;;;;;24.38;100.00;95936.00;5030793;28;101887;-65
2022/06/20 08:14:20;;;;;;;12.63;8.70;;;;;;;24.57;100.00;95933.38;5033340;28;104464;-65
2022/06/20 08:16:50;;;;;;;13.73;8.40;;;;;;;24.75;100.00;95926.47;5030747;28;101935;-65
2022/06/20 08:19:18;;;;;;;12.53;8.10;;;;;;;25.00;100.00;95921.63;5030403;28;103608;-65
2022/06/20 08:21:53;;;;;;;13.67;8.00;;;;;;;25.63;100.00;95923.09;5029949;28;103867;-65
2022/06/20 08:24:30;;;;;;;15.47;7.87;;;;;;;25.54;100.00;95917.06;5030772;28;102284;-65
2022/06/20 08:27:03;;;;;;;13.57;7.63;;;;;;;25.54;100.00;95917.06;5032199;27;102389;-65
2022/06/20 08:29:37;;;;;;;12.67;7.43;;;;;;;25.96;100.00;95920.72;5029644;28;104028;-65
2022/06/20 08:32:12;;;;;;;10.10;7.83;;;;;;;26.38;100.00;95921.53;5031959;28;101723;-65
2022/06/20 08:34:46;;;;;;;11.70;7.53;;;;;;;26.42;100.00;95906.03;5031993;28;102943;-65
2022/06/20 08:37:20;;;;;;;12.47;7.27;;;;;;;26.35;100.00;95916.78;5034709;27;102639;-65
2022/06/20 08:39:51;;;;;;;13.13;7.03;;;;;;;26.29;100.00;95910.06;5031893;28;102821;-65
2022/06/20 08:42:54;;;;;;;9.97;7.17;;;;;;;26.39;100.00;95917.66;5031332;28;102777;-65
2022/06/20 08:45:37;;;;;;;12.73;8.10;;;;;;;26.86;100.00;95909.94;4972057;28;102136;-65
2022/06/20 08:48:37;;;;;;;11.50;7.50;;;;;;;27.04;100.00;95911.00;5031786;28;102380;-65
2022/06/20 08:52:06;;;;;;;11.13;7.70;;;;;;;27.42;100.00;95916.28;5025929;27;103254;-65
2022/06/20 08:54:58;;;;;;;10.33;7.30;;;;;;;28.00;100.00;95914.75;5031483;28;101896;-65
2022/06/20 08:57:33;;;;;;;10.37;6.97;;;;;;;28.29;100.00;95924.84;5031620;28;102268;-65
2022/06/20 09:00:09;;;;;;;10.07;7.40;;;;;;;28.84;100.00;95929.34;5029448;28;105860;-65
2022/06/20 09:02:56;;;;;;;10.77;7.00;;;;;;;28.87;100.00;95925.84;5034469;27;101809;-65
2022/06/20 09:05:47;;;;;;;10.37;6.33;;;;;;;28.31;100.00;95928.78;5030500;28;102574;-65
2022/06/20 09:08:36;;;;;;;11.80;6.27;;;;;;;28.48;100.00;95927.41;5031322;27;102218;-65
2022/06/20 09:11:19;;;;;;;10.47;6.33;;;;;;;28.61;100.00;95929.50;5030063;28;105924;-65
2022/06/20 09:14:07;;;;;;;11.60;6.33;;;;;;;28.32;100.00;95929.56;5030710;28;102783;-65
2022/06/20 09:16:44;;;;;;;9.87;5.40;;;;;;;28.25;100.00;95932.22;5029875;28;101948;-65
2022/06/20 09:19:40;;;;;;;15.20;6.00;;;;;;;28.41;100.00;95927.34;5031404;27;102385;-65
2022/06/20 09:22:21;;;;;;;11.67;5.43;;;;;;;28.52;100.00;95926.31;5030296;28;103264;-65
2022/06/20 09:25:04;;;;;;;11.13;5.37;;;;;;;28.43;100.00;95931.28;5030166;28;101696;-65
2022/06/20 09:27:46;;;;;;;9.87;5.67;;;;;;;28.22;100.00;95931.00;5033842;28;102877;-65
2022/06/20 09:30:19;;;;;;;9.67;5.30;;;;;;;28.14;100.00;95931.31;5031072;27;102078;-65
2022/06/20 09:33:23;;;;;;;8.63;5.67;;;;;;;28.31;100.00;95937.00;5031132;28;102391;-65
2022/06/20 09:36:20;;;;;;;11.53;5.83;;;;;;;27.89;90.28;95930.25;5020478;27;102754;-65
2022/06/20 09:39:02;;;;;;;8.30;5.77;;;;;;;27.96;96.54;95928.34;5030951;28;101738;-65
2022/06/20 09:41:36;;;;;;;10.33;5.27;;;;;;;28.31;100.00;95925.25;5030706;28;102368;-65
2022/06/20 09:44:20;;;;;;;10.20;6.10;;;;;;;28.29;100.00;95924.84;5030279;27;103129;-65
2022/06/20 09:46:58;;;;;;;13.17;6.57;;;;;;;28.05;100.00;95931.59;5029445;28;102316;-65
2022/06/20 09:49:36;;;;;;;12.23;5.67;;;;;;;28.13;100.00;95927.00;5029323;28;105095;-65
2022/06/20 09:52:11;;;;;;;10.20;5.83;;;;;;;27.95;100.00;95923.28;5033384;28;103168;-65
2022/06/20 09:54:52;;;;;;;10.50;6.20;;;;;;;27.95;100.00;95923.28;5030682;28;102885;-65
2022/06/20 09:57:33;;;;;;;10.43;5.20;;;;;;;28.03;100.00;95930.41;5030040;27;102583;-65
2022/06/20 10:00:07;;;;;;;10.83;5.33;;;;;;;28.27;100.00;95921.72;5029325;28;101967;-65
2022/06/20 10:02:56;;;;;;;8.73;5.40;;;;;;;28.48;100.00;95927.41;5028343;28;105781;-65
2022/06/20 10:05:39;;;;;;;9.67;5.53;;;;;;;28.52;99.32;95922.78;5029729;28;105055;-65
2022/06/20 10:08:16;;;;;;;8.37;5.03;;;;;;;28.71;100.00;95917.09;5030664;27;101682;-65
2022/06/20 10:10:49;;;;;;;9.10;5.40;;;;;;;28.91;100.00;95913.75;5030374;28;102342;-65
2022/06/20 10:13:26;;;;;;;7.43;5.00;;;;;;;29.38;92.70;95912.97;5032938;28;102791;-65
2022/06/20 10:16:08;;;;;;;8.88;5.40;;;;;;;29.80;96.32;95907.75;5030315;28;102394;-65
2022/06/20 10:18:43;;;;;;;10.33;4.97;;;;;;;29.71;93.97;95910.84;5029711;28;101694;-65
2022/06/20 10:21:17;;;;;;;12.25;4.53;;;;;;;29.48;77.57;95928.69;5030141;28;101936;-65
2022/06/20 10:24:07;;;;;;;6.78;4.05;;;;;;;29.24;73.95;95915.59;5030453;28;102395;-65
2022/06/20 10:26:59;;;;;;;9.55;4.78;;;;;;;29.25;69.93;95911.72;5029764;28;102633;-65
2022/06/20 10:29:37;;;;;;;8.00;3.95;;;;;;;29.13;69.39;95912.00;5030569;28;102020;-65
2022/06/20 10:32:17;;;;;;;8.98;3.33;;;;;;;28.90;63.66;95911.41;5030109;28;102459;-65
2022/06/20 10:34:55;;;;;;;9.82;3.42;;;;;;;28.97;60.90;95920.50;5027994;28;105692;-65
2022/06/20 10:37:27;;;;;;;11.63;4.20;;;;;;;28.99;61.41;95920.88;5037200;28;101734;-65
2022/06/20 10:39:58;;;;;;;8.50;3.15;;;;;;;29.07;56.35;95924.47;5033193;27;102931;-65
2022/06/20 10:42:32;;;;;;;6.45;3.58;;;;;;;29.02;56.77;95922.09;5032444;28;102012;-65
2022/06/20 10:45:17;;;;;;;8.55;3.53;;;;;;;29.61;56.36;95921.75;5031955;28;105393;-65
2022/06/20 10:47:56;;;;;;;5.35;3.22;;;;;;;29.53;52.63;95917.38;5033230;27;103018;-65
2022/06/20 10:50:34;;;;;;;7.47;3.93;;;;;;;29.43;58.23;95913.38;5032072;28;102039;-65
2022/06/20 10:53:10;;;;;;;12.48;3.60;;;;;;;29.39;53.30;95903.56;5033488;28;102859;-65
2022/06/20 10:55:52;;;;;;;8.48;3.60;;;;;;;29.40;53.28;95902.41;5032686;28;102818;-65
2022/06/20 10:58:40;;;;;;;4.50;3.30;;;;;;;29.85;53.64;95893.69;5033290;27;101885;-65
2022/06/20 11:01:16;;;;;;;7.82;3.40;;;;;;;30.16;54.95;95893.03;5035992;28;102426;-65
2022/06/20 11:04:00;;;;;;;9.07;3.67;;;;;;;30.10;49.79;95894.56;5032045;28;101880;-65
2022/06/20 11:06:59;;;;;;;9.15;3.97;;;;;;;29.26;49.45;95896.84;5032022;28;104884;-65
2022/06/20 11:09:34;;;;;;;7.68;3.50;;;;;;;29.23;54.46;95894.84;5030542;28;105780;-65
2022/06/20 11:12:11;;;;;;;8.38;3.92;;;;;;;29.31;54.05;95894.53;5032698;27;102138;-65
2022/06/20 11:14:48;;;;;;;6.83;3.50;;;;;;;29.18;54.39;95901.50;5033077;28;102411;-65
2022/06/20 11:17:22;;;;;;;7.43;3.63;;;;;;;29.43;54.25;95898.91;5030909;28;106095;-65
2022/06/20 11:20:00;;;;;;;7.38;3.70;;;;;;;29.33;56.69;95891.41;5031611;28;101823;-65
2022/06/20 11:22:37;;;;;;;7.45;3.80;;;;;;;29.39;53.61;95887.13;5032630;28;102386;-65
2022/06/20 11:25:18;;;;;;;7.03;4.07;;;;;;;29.37;57.10;95886.75;5035871;28;102687;-65
2022/06/20 11:28:03;;;;;;;6.50;3.70;;;;;;;29.68;55.34;95883.41;5031509;28;103620;-65
2022/06/20 11:30:38;;;;;;;13.10;3.85;;;;;;;29.58;59.03;95878.69;5032341;27;102502;-65
2022/06/20 11:34:00;;;;;;;7.70;3.55;;;;;;;29.49;54.28;95878.19;5031546;28;102131;-65
2022/06/20 11:36:14;;;;;;;7.93;3.85;;;;;;;29.51;57.20;95878.59;5030922;28;105641;-65
2022/06/20 11:39:03;;;;;;;7.60;3.65;;;;;;;29.33;55.70;95878.50;5031839;27;103079;-65
2022/06/20 11:41:36;;;;;;;11.13;4.05;;;;;;;29.37;61.34;95876.56;5032462;27;101775;-65
2022/06/20 11:44:31;;;;;;;8.63;4.18;;;;;;;29.54;62.78;95877.88;5031110;28;105776;-65
2022/06/20 11:47:27;;;;;;;7.35;3.80;;;;;;;29.56;62.29;95870.84;5031228;27;102794;-65
2022/06/20 11:50:21;;;;;;;7.83;3.87;;;;;;;29.54;57.60;95877.88;5036101;27;101775;-65
2022/06/20 11:52:55;;;;;;;9.60;4.10;;;;;;;29.53;55.46;95865.31;5031864;28;101718;-65
2022/06/20 11:55:30;;;;;;;8.02;3.92;;;;;;;29.71;59.56;95860.72;5030893;28;101985;-65